createdAt,value
2018-02-13T00:01:49.897Z,16.50
2018-02-13T00:04:17.569Z,16.50
2018-02-13T00:06:45.219Z,16.50
2018-02-13T00:09:13.032Z,16.50
2018-02-13T00:11:40.726Z,16.50
2018-02-13T00:14:08.347Z,16.50
2018-02-13T00:16:35.987Z,16.50
2018-02-13T00:19:03.649Z,16.50
2018-02-13T00:21:31.303Z,16.50
2018-02-13T00:23:58.981Z,16.50
2018-02-13T00:26:26.665Z,16.50
2018-02-13T00:28:55.107Z,16.50
2018-02-13T00:31:22.743Z,16.50
2018-02-13T00:33:50.539Z,16.50
2018-02-13T00:36:18.993Z,16.50
2018-02-13T00:38:46.638Z,16.50
2018-02-13T00:41:14.277Z,16.50
2018-02-13T00:43:42.009Z,16.50
2018-02-13T00:46:09.658Z,16.50
2018-02-13T00:48:37.298Z,16.50
2018-02-13T00:51:05.130Z,16.50
2018-02-13T00:53:32.808Z,16.50
2018-02-13T00:56:00.485Z,16.50
2018-02-13T00:58:28.144Z,16.50
2018-02-13T01:00:56.560Z,16.50
2018-02-13T01:03:25.025Z,16.50
2018-02-13T01:05:52.693Z,16.50
2018-02-13T01:08:20.376Z,16.50
2018-02-13T01:10:48.768Z,16.50
2018-02-13T01:13:16.437Z,16.40
2018-02-13T01:15:44.232Z,16.50
2018-02-13T01:18:11.894Z,16.50
2018-02-13T01:20:39.570Z,16.50
2018-02-13T01:23:07.202Z,16.40
2018-02-13T01:25:35.025Z,16.40
2018-02-13T01:28:02.710Z,16.40
2018-02-13T01:30:30.363Z,16.40
2018-02-13T01:32:58.021Z,16.40
2018-02-13T01:35:25.657Z,16.40
2018-02-13T01:37:54.111Z,16.40
2018-02-13T01:40:21.794Z,16.40
2018-02-13T01:42:50.216Z,16.40
2018-02-13T01:45:17.945Z,16.40
2018-02-13T01:47:46.369Z,16.40
2018-02-13T01:50:25.093Z,16.40
2018-02-13T01:52:52.758Z,16.40
2018-02-13T01:55:20.398Z,16.40
2018-02-13T01:57:48.035Z,16.30
2018-02-13T02:00:15.680Z,16.40
2018-02-13T02:02:44.090Z,16.30
2018-02-13T02:05:11.749Z,16.30
2018-02-13T02:07:39.427Z,16.30
2018-02-13T02:10:07.284Z,16.40
2018-02-13T02:12:34.982Z,16.30
2018-02-13T02:15:02.632Z,16.30
2018-02-13T02:17:30.268Z,16.30
2018-02-13T02:19:57.918Z,16.30
2018-02-13T02:22:25.590Z,16.30
2018-02-13T02:24:53.246Z,16.30
2018-02-13T02:27:20.888Z,16.30
2018-02-13T02:29:48.589Z,16.30
2018-02-13T02:32:16.258Z,16.30
2018-02-13T02:34:43.921Z,16.30
2018-02-13T02:37:11.570Z,16.30
2018-02-13T02:39:39.216Z,16.30
2018-02-13T02:42:06.900Z,16.30
2018-02-13T02:44:34.556Z,16.30
2018-02-13T02:47:02.222Z,16.30
2018-02-13T02:49:30.101Z,16.30
2018-02-13T02:51:58.542Z,16.30
2018-02-13T02:54:26.221Z,16.30
2018-02-13T02:56:54.656Z,16.30
2018-02-13T02:59:22.287Z,16.30
2018-02-13T03:01:49.946Z,16.30
2018-02-13T03:04:17.597Z,16.30
2018-02-13T03:06:45.255Z,16.30
2018-02-13T03:09:12.898Z,16.30
2018-02-13T03:11:40.688Z,16.30
2018-02-13T03:14:09.098Z,16.30
2018-02-13T03:16:36.789Z,16.30
2018-02-13T03:19:04.415Z,16.30
2018-02-13T03:21:32.047Z,16.30
2018-02-13T03:23:59.701Z,16.30
2018-02-13T03:26:27.371Z,16.30
2018-02-13T03:28:55.141Z,16.30
2018-02-13T03:31:23.565Z,16.30
2018-02-13T03:33:51.226Z,16.20
2018-02-13T03:36:18.886Z,16.30
2018-02-13T03:38:46.564Z,16.30
2018-02-13T03:41:14.204Z,16.30
2018-02-13T03:43:41.858Z,16.30
2018-02-13T03:46:09.646Z,16.30
2018-02-13T03:48:37.337Z,16.20
2018-02-13T03:51:04.989Z,16.30
2018-02-13T03:53:32.658Z,16.20
2018-02-13T03:56:00.489Z,16.20
2018-02-13T03:58:28.341Z,16.20
2018-02-13T04:00:56.028Z,16.20
2018-02-13T04:03:23.670Z,16.20
2018-02-13T04:05:51.301Z,16.20
2018-02-13T04:08:19.015Z,16.20
2018-02-13T04:10:46.771Z,16.30
2018-02-13T04:13:14.422Z,16.20
2018-02-13T04:15:42.910Z,16.20
2018-02-13T04:18:10.558Z,16.20
2018-02-13T04:20:38.217Z,16.20
2018-02-13T04:23:06.011Z,16.20
2018-02-13T04:25:34.423Z,16.20
2018-02-13T04:28:02.060Z,16.20
2018-02-13T04:30:30.466Z,16.20
2018-02-13T04:32:58.271Z,16.20
2018-02-13T04:35:25.937Z,16.20
2018-02-13T04:37:53.608Z,16.20
2018-02-13T04:40:21.272Z,16.20
2018-02-13T04:42:48.922Z,16.20
2018-02-13T04:45:16.612Z,16.20
2018-02-13T04:47:45.020Z,16.20
2018-02-13T04:50:12.647Z,16.20
2018-02-13T04:52:41.072Z,16.20
2018-02-13T04:55:08.887Z,16.20
2018-02-13T04:57:37.471Z,16.20
2018-02-13T05:00:05.912Z,16.20
2018-02-13T05:02:33.579Z,16.20
2018-02-13T05:05:01.242Z,16.20
2018-02-13T05:07:29.036Z,16.20
2018-02-13T05:09:57.479Z,16.20
2018-02-13T05:12:25.130Z,16.20
2018-02-13T05:14:52.901Z,16.10
2018-02-13T05:17:20.634Z,16.10
2018-02-13T05:19:48.282Z,16.10
2018-02-13T05:22:15.906Z,16.10
2018-02-13T05:24:43.545Z,16.00
2018-02-13T05:27:11.174Z,16.00
2018-02-13T05:29:38.841Z,16.00
2018-02-13T05:32:06.466Z,16.00
2018-02-13T05:34:34.864Z,15.90
2018-02-13T05:37:02.508Z,15.90
2018-02-13T05:39:30.934Z,15.90
2018-02-13T05:41:58.583Z,15.90
2018-02-13T05:44:26.225Z,15.90
2018-02-13T05:46:53.859Z,15.90
2018-02-13T05:49:22.254Z,15.90
2018-02-13T05:51:49.914Z,15.90
2018-02-13T05:54:17.541Z,15.90
2018-02-13T05:56:45.164Z,15.90
2018-02-13T05:59:12.827Z,15.90
2018-02-13T06:01:40.473Z,15.90
2018-02-13T06:04:08.118Z,15.90
2018-02-13T06:06:35.755Z,15.90
2018-02-13T06:09:04.263Z,15.90
2018-02-13T06:11:31.936Z,15.90
2018-02-13T06:13:59.570Z,15.90
2018-02-13T06:16:28.005Z,15.90
2018-02-13T06:18:55.709Z,15.90
2018-02-13T06:21:24.101Z,15.90
2018-02-13T06:23:51.780Z,15.90
2018-02-13T06:26:19.405Z,15.90
2018-02-13T06:28:47.806Z,16.00
2018-02-13T06:31:15.459Z,15.90
2018-02-13T06:33:43.114Z,15.90
2018-02-13T06:36:10.750Z,15.90
2018-02-13T06:38:39.161Z,16.00
2018-02-13T06:41:06.790Z,15.90
2018-02-13T06:43:35.196Z,16.00
2018-02-13T06:46:02.853Z,15.90
2018-02-13T06:48:30.505Z,16.00
2018-02-13T06:50:58.135Z,16.00
2018-02-13T06:53:25.767Z,16.00
2018-02-13T06:55:54.181Z,16.00
2018-02-13T06:58:21.831Z,15.90
2018-02-13T07:00:49.468Z,16.00
2018-02-13T07:03:17.102Z,16.00
2018-02-13T07:05:44.754Z,16.00
2018-02-13T07:08:12.403Z,16.00
2018-02-13T07:10:40.808Z,16.00
2018-02-13T07:13:08.449Z,16.00
2018-02-13T07:15:36.082Z,16.00
2018-02-13T07:18:04.590Z,16.00
2018-02-13T07:20:32.278Z,16.00
2018-02-13T07:22:59.903Z,16.00
2018-02-13T07:25:27.603Z,16.00
2018-02-13T07:27:55.256Z,16.00
2018-02-13T07:30:22.910Z,16.00
2018-02-13T07:32:50.588Z,16.00
2018-02-13T07:35:19.074Z,16.00
2018-02-13T07:37:46.727Z,15.90
2018-02-13T07:40:14.405Z,15.90
2018-02-13T07:42:42.059Z,15.90
2018-02-13T07:45:11.381Z,15.80
2018-02-13T07:47:39.827Z,15.80
2018-02-13T07:52:41.271Z,15.80
2018-02-13T07:55:08.922Z,15.80
2018-02-13T07:57:37.335Z,15.70
2018-02-13T08:00:04.965Z,15.70
2018-02-13T08:02:33.446Z,15.70
2018-02-13T08:05:01.088Z,15.70
2018-02-13T08:07:29.506Z,15.60
2018-02-13T08:09:57.142Z,15.60
2018-02-13T08:12:24.810Z,15.60
2018-02-13T08:14:52.458Z,15.60
2018-02-13T08:17:20.089Z,15.60
2018-02-13T08:19:48.510Z,15.60
2018-02-13T08:22:16.154Z,15.50
2018-02-13T08:24:43.794Z,15.50
2018-02-13T08:27:12.274Z,15.50
2018-02-13T08:29:40.030Z,15.50
2018-02-13T08:32:08.443Z,15.50
2018-02-13T08:34:36.120Z,15.50
2018-02-13T08:37:03.767Z,15.50
2018-02-13T08:39:31.432Z,15.50
2018-02-13T08:41:59.076Z,15.50
2018-02-13T08:44:26.753Z,15.50
2018-02-13T08:46:54.431Z,15.50
2018-02-13T08:49:22.125Z,15.50
2018-02-13T08:51:49.788Z,15.50
2018-02-13T08:54:17.457Z,15.50
2018-02-13T08:56:45.163Z,15.50
2018-02-13T08:59:12.805Z,15.50
2018-02-13T09:01:40.576Z,15.50
2018-02-13T09:04:08.213Z,15.40
2018-02-13T09:06:36.624Z,15.50
2018-02-13T09:09:04.414Z,15.40
2018-02-13T09:11:32.059Z,15.50
2018-02-13T09:13:59.718Z,15.50
2018-02-13T09:16:27.354Z,15.50
2018-02-13T09:18:54.978Z,15.50
2018-02-13T09:21:23.382Z,15.50
2018-02-13T09:23:51.015Z,15.50
2018-02-13T09:26:19.412Z,15.50
2018-02-13T09:28:47.818Z,15.40
2018-02-13T09:31:15.481Z,15.40
2018-02-13T09:33:43.309Z,15.40
2018-02-13T09:36:11.738Z,15.50
2018-02-13T09:38:39.391Z,15.40
2018-02-13T09:41:07.081Z,15.50
2018-02-13T09:43:34.745Z,15.50
2018-02-13T09:46:02.472Z,15.50
2018-02-13T09:48:30.142Z,15.50
2018-02-13T09:50:58.574Z,15.50
2018-02-13T09:53:26.994Z,15.50
2018-02-13T09:55:54.642Z,15.50
2018-02-13T09:58:22.309Z,15.50
2018-02-13T10:00:49.942Z,15.50
2018-02-13T10:03:17.595Z,15.50
2018-02-13T10:05:45.271Z,15.50
2018-02-13T10:08:12.907Z,15.50
2018-02-13T10:10:41.320Z,15.60
2018-02-13T10:13:08.947Z,15.50
2018-02-13T10:15:37.364Z,15.60
2018-02-13T10:18:05.003Z,15.50
2018-02-13T10:20:32.670Z,15.60
2018-02-13T10:23:00.359Z,15.60
2018-02-13T10:25:28.006Z,15.60
2018-02-13T10:27:55.670Z,15.60
2018-02-13T10:30:23.310Z,15.60
2018-02-13T10:32:50.961Z,15.60
2018-02-13T10:35:18.597Z,15.60
2018-02-13T10:37:46.998Z,15.60
2018-02-13T10:40:20.538Z,15.60
2018-02-13T10:42:48.167Z,15.60
2018-02-13T10:45:15.860Z,15.60
2018-02-13T10:47:43.519Z,15.60
2018-02-13T10:50:11.275Z,15.60
2018-02-13T10:52:38.903Z,15.70
2018-02-13T10:55:06.604Z,15.70
2018-02-13T10:57:34.248Z,15.70
2018-02-13T11:00:01.886Z,15.70
2018-02-13T11:02:29.557Z,15.70
2018-02-13T11:04:57.182Z,15.70
2018-02-13T11:07:25.615Z,15.70
2018-02-13T11:09:53.246Z,15.70
2018-02-13T11:12:20.901Z,15.70
2018-02-13T11:14:48.605Z,15.70
2018-02-13T11:17:16.275Z,15.70
2018-02-13T11:19:43.924Z,15.70
2018-02-13T11:22:11.585Z,15.70
2018-02-13T11:24:39.243Z,15.80
2018-02-13T11:27:06.929Z,15.80
2018-02-13T11:29:34.579Z,15.80
2018-02-13T11:32:02.380Z,15.80
2018-02-13T11:34:30.208Z,15.80
2018-02-13T11:36:58.058Z,15.80
2018-02-13T11:39:25.867Z,15.80
2018-02-13T11:41:53.737Z,15.80
2018-02-13T11:44:21.567Z,15.80
2018-02-13T11:46:49.355Z,15.80
2018-02-13T11:49:17.928Z,15.80
2018-02-13T11:51:46.473Z,15.90
2018-02-13T11:54:14.343Z,15.80
2018-02-13T11:56:42.154Z,15.90
2018-02-13T11:59:10.787Z,15.90
2018-02-13T12:01:38.469Z,15.90
2018-02-13T12:04:06.141Z,15.90
2018-02-13T12:06:33.790Z,15.90
2018-02-13T12:09:01.471Z,15.90
2018-02-13T12:11:29.883Z,15.90
2018-02-13T12:13:57.564Z,15.90
2018-02-13T12:16:25.224Z,15.90
2018-02-13T12:18:52.871Z,15.90
2018-02-13T12:21:20.528Z,15.90
2018-02-13T12:23:48.199Z,16.00
2018-02-13T12:26:15.884Z,16.00
2018-02-13T12:28:43.531Z,15.90
2018-02-13T12:31:11.332Z,16.00
2018-02-13T12:33:39.897Z,16.00
2018-02-13T12:36:07.721Z,16.00
2018-02-13T12:38:35.506Z,16.00
2018-02-13T12:41:03.309Z,16.00
2018-02-13T12:43:31.905Z,16.00
2018-02-13T12:46:01.431Z,16.00
2018-02-13T12:48:29.266Z,16.00
2018-02-13T12:50:57.846Z,16.00
2018-02-13T12:53:26.432Z,16.00
2018-02-13T12:55:55.040Z,16.00
2018-02-13T12:58:22.861Z,16.00
2018-02-13T13:00:50.664Z,16.00
2018-02-13T13:03:18.343Z,16.00
2018-02-13T13:05:46.003Z,16.00
2018-02-13T13:08:13.719Z,16.00
2018-02-13T13:10:42.125Z,16.00
2018-02-13T13:13:09.754Z,16.00
2018-02-13T13:15:37.396Z,16.00
2018-02-13T13:18:05.049Z,16.10
2018-02-13T13:20:32.700Z,16.00
2018-02-13T13:23:00.345Z,16.10
2018-02-13T13:25:27.979Z,16.10
2018-02-13T13:27:56.397Z,16.10
2018-02-13T13:30:24.054Z,16.10
2018-02-13T13:32:51.703Z,16.10
2018-02-13T13:35:19.359Z,16.20
2018-02-13T13:37:47.013Z,16.20
2018-02-13T13:40:14.662Z,16.20
2018-02-13T13:42:42.290Z,16.20
2018-02-13T13:45:09.934Z,16.20
2018-02-13T13:47:37.587Z,16.20
2018-02-13T13:50:05.497Z,16.20
2018-02-13T13:52:33.950Z,16.20
2018-02-13T13:55:01.608Z,16.20
2018-02-13T13:57:29.312Z,16.20
2018-02-13T13:59:57.000Z,16.20
2018-02-13T14:02:24.658Z,16.20
2018-02-13T14:04:52.367Z,16.20
2018-02-13T14:07:20.084Z,16.20
2018-02-13T14:09:47.726Z,16.20
2018-02-13T14:12:15.366Z,16.20
2018-02-13T14:14:43.797Z,16.30
2018-02-13T14:17:11.491Z,16.20
2018-02-13T14:19:39.119Z,16.20
2018-02-13T14:22:06.750Z,16.30
2018-02-13T14:24:34.419Z,16.20
2018-02-13T14:27:02.089Z,16.30
2018-02-13T14:29:29.754Z,16.30
2018-02-13T14:31:57.465Z,16.30
2018-02-13T14:34:25.866Z,16.30
2018-02-13T14:36:53.498Z,16.30
2018-02-13T14:39:21.927Z,16.30
2018-02-13T14:41:49.575Z,16.30
2018-02-13T14:44:17.274Z,16.40
2018-02-13T14:46:44.913Z,16.40
2018-02-13T14:49:12.561Z,16.40
2018-02-13T14:51:40.194Z,16.40
2018-02-13T14:54:08.590Z,16.40
2018-02-13T14:56:36.231Z,16.40
2018-02-13T14:59:03.878Z,16.40
2018-02-13T15:01:32.293Z,16.40
2018-02-13T15:03:59.955Z,16.40
2018-02-13T15:06:27.666Z,16.40
2018-02-13T15:08:55.355Z,16.40
2018-02-13T15:11:22.994Z,16.50
2018-02-13T15:13:51.453Z,16.40
2018-02-13T15:16:19.145Z,16.50
2018-02-13T15:18:47.601Z,16.50
2018-02-13T15:21:15.240Z,16.50
2018-02-13T15:23:42.879Z,16.50
2018-02-13T15:26:10.549Z,16.50
2018-02-13T15:28:38.197Z,16.50
2018-02-13T15:31:05.953Z,16.50
2018-02-13T15:33:33.636Z,16.50
2018-02-13T15:36:01.288Z,16.50
2018-02-13T15:38:28.959Z,16.50
2018-02-13T15:40:56.669Z,16.50
2018-02-13T15:43:25.075Z,16.60
2018-02-13T15:45:52.725Z,16.60
2018-02-13T15:48:20.374Z,16.60
2018-02-13T15:50:48.808Z,16.60
2018-02-13T15:53:16.458Z,16.60
2018-02-13T15:55:44.139Z,16.60
2018-02-13T15:58:13.413Z,16.60
2018-02-13T16:00:41.044Z,16.60
2018-02-13T16:03:08.694Z,16.60
2018-02-13T16:05:37.104Z,16.60
2018-02-13T16:08:04.746Z,16.60
2018-02-13T16:10:32.392Z,16.60
2018-02-13T16:13:00.798Z,16.60
2018-02-13T16:15:28.455Z,16.60
2018-02-13T16:17:56.167Z,16.60
2018-02-13T16:20:23.843Z,16.60
2018-02-13T16:22:51.552Z,16.60
2018-02-13T16:25:19.186Z,16.60
2018-02-13T16:27:46.875Z,16.60
2018-02-13T16:30:14.926Z,16.60
2018-02-13T16:32:42.588Z,16.60
2018-02-13T16:35:10.228Z,16.60
2018-02-13T16:37:37.894Z,16.60
2018-02-13T16:40:05.562Z,16.60
2018-02-13T16:42:33.248Z,16.60
2018-02-13T16:45:00.903Z,16.60
2018-02-13T16:47:28.547Z,16.60
2018-02-13T16:49:56.200Z,16.60
2018-02-13T16:52:23.873Z,16.60
2018-02-13T16:54:51.523Z,16.60
2018-02-13T16:57:19.229Z,16.70
2018-02-13T16:59:46.873Z,16.70
2018-02-13T17:02:14.549Z,16.70
2018-02-13T17:04:42.197Z,16.70
2018-02-13T17:07:09.851Z,16.70
2018-02-13T17:09:37.486Z,16.60
2018-02-13T17:12:05.183Z,16.70
2018-02-13T17:14:32.892Z,16.60
2018-02-13T17:17:01.354Z,16.60
2018-02-13T17:19:29.856Z,16.70
2018-02-13T17:21:57.589Z,16.60
2018-02-13T17:24:25.322Z,16.60
2018-02-13T17:26:53.243Z,16.70
2018-02-13T17:29:21.684Z,16.60
2018-02-13T17:31:49.417Z,16.60
2018-02-13T17:34:17.178Z,16.70
2018-02-13T17:36:44.875Z,16.60
2018-02-13T17:39:12.597Z,16.70
2018-02-13T17:41:40.330Z,16.70
2018-02-13T17:44:08.018Z,16.70
2018-02-13T17:46:35.731Z,16.60
2018-02-13T17:49:03.407Z,16.70
2018-02-13T17:51:31.914Z,16.70
2018-02-13T17:53:59.619Z,16.60
2018-02-13T17:56:27.344Z,16.60
2018-02-13T17:58:55.046Z,16.60
2018-02-13T18:01:22.745Z,16.60
2018-02-13T18:03:51.266Z,16.60
2018-02-13T18:06:18.986Z,16.60
2018-02-13T18:08:47.459Z,16.60
2018-02-13T18:11:15.921Z,16.70
2018-02-13T18:13:43.611Z,16.60
2018-02-13T18:16:12.134Z,16.70
2018-02-13T18:18:39.862Z,16.60
2018-02-13T18:21:07.566Z,16.70
2018-02-13T18:23:35.287Z,16.60
2018-02-13T18:26:02.998Z,16.60
2018-02-13T18:28:30.738Z,16.60
2018-02-13T18:30:58.604Z,16.60
2018-02-13T18:33:26.297Z,16.60
2018-02-13T18:35:54.019Z,16.50
2018-02-13T18:38:21.756Z,16.60
2018-02-13T18:40:49.451Z,16.60
2018-02-13T18:43:17.179Z,16.50
2018-02-13T18:45:44.920Z,16.60
2018-02-13T18:48:13.404Z,16.50
2018-02-13T18:50:41.903Z,16.50
2018-02-13T18:55:37.271Z,16.50
2018-02-13T18:58:05.001Z,16.50
2018-02-13T19:00:32.738Z,16.50
2018-02-13T19:03:01.248Z,16.50
2018-02-13T19:05:28.972Z,16.50
2018-02-13T19:07:57.456Z,16.50
2018-02-13T19:10:26.087Z,16.50
2018-02-13T19:12:53.869Z,16.40
2018-02-13T19:15:21.585Z,16.50
2018-02-13T19:17:49.279Z,16.40
2018-02-13T19:20:17.014Z,16.40
2018-02-13T19:22:44.727Z,16.40
2018-02-13T19:25:12.434Z,16.40
2018-02-13T19:27:40.929Z,16.30
2018-02-13T19:30:08.655Z,16.30
2018-02-13T19:32:37.125Z,16.30
2018-02-13T19:35:04.868Z,16.30
2018-02-13T19:37:32.607Z,16.30
2018-02-13T19:40:00.315Z,16.30
2018-02-13T19:42:28.834Z,16.30
2018-02-13T19:44:56.560Z,16.30
2018-02-13T19:47:24.898Z,16.30
2018-02-13T19:49:52.639Z,16.30
2018-02-13T19:52:20.375Z,16.30
2018-02-13T19:54:48.088Z,16.30
2018-02-13T19:57:17.360Z,16.30
2018-02-13T19:59:45.086Z,16.30
2018-02-13T20:02:13.610Z,16.40
2018-02-13T20:04:41.335Z,16.30
2018-02-13T20:07:09.076Z,16.30
2018-02-13T20:09:37.634Z,16.40
2018-02-13T20:12:05.415Z,16.40
2018-02-13T20:14:33.142Z,16.40
2018-02-13T20:17:00.878Z,16.40
2018-02-13T20:19:28.611Z,16.40
2018-02-13T20:21:57.116Z,16.40
2018-02-13T20:24:24.847Z,16.40
2018-02-13T20:26:53.336Z,16.40
2018-02-13T20:29:21.084Z,16.40
2018-02-13T20:31:48.813Z,16.40
2018-02-13T20:34:16.565Z,16.40
2018-02-13T20:36:44.301Z,16.40
2018-02-13T20:39:12.063Z,16.50
2018-02-13T20:41:39.780Z,16.50
2018-02-13T20:44:08.307Z,16.50
2018-02-13T20:46:36.044Z,16.50
2018-02-13T20:49:03.761Z,16.50
2018-02-13T20:51:32.539Z,16.50
2018-02-13T20:54:00.303Z,16.50
2018-02-13T20:56:28.027Z,16.50
2018-02-13T20:58:56.500Z,16.50
2018-02-13T21:01:25.081Z,16.50
2018-02-13T21:03:52.868Z,16.50
2018-02-13T21:06:21.526Z,16.50
2018-02-13T21:08:49.286Z,16.60
2018-02-13T21:11:17.043Z,16.60
2018-02-13T21:13:44.805Z,16.60
2018-02-13T21:16:12.531Z,16.60
2018-02-13T21:18:40.296Z,16.60
2018-02-13T21:21:08.039Z,16.60
2018-02-13T21:23:35.791Z,16.60
2018-02-13T21:26:03.531Z,16.60
2018-02-13T21:28:32.717Z,16.60
2018-02-13T21:31:00.525Z,16.60
2018-02-13T21:33:28.272Z,16.60
2018-02-13T21:35:56.861Z,16.60
2018-02-13T21:38:24.584Z,16.60
2018-02-13T21:40:52.320Z,16.60
2018-02-13T21:43:20.254Z,16.60
2018-02-13T21:45:48.120Z,16.60
2018-02-13T21:48:15.943Z,16.60
2018-02-13T21:50:44.651Z,16.60
2018-02-13T21:53:13.358Z,16.60
2018-02-13T21:55:41.154Z,16.60
2018-02-13T21:58:08.974Z,16.60
2018-02-13T22:00:36.823Z,16.60
2018-02-13T22:03:05.431Z,16.60
2018-02-13T22:05:33.263Z,16.60
2018-02-13T22:08:01.870Z,16.60
2018-02-13T22:10:29.819Z,16.60
2018-02-13T22:12:58.364Z,16.60
2018-02-13T22:15:26.126Z,16.60
2018-02-13T22:17:53.863Z,16.60
2018-02-13T22:20:21.612Z,16.60
2018-02-13T22:22:49.364Z,16.60
2018-02-13T22:25:17.822Z,16.60
2018-02-13T22:27:45.618Z,16.60
2018-02-13T22:30:13.318Z,16.60
2018-02-13T22:32:41.049Z,16.60
2018-02-13T22:35:08.802Z,16.60
2018-02-13T22:37:37.309Z,16.60
2018-02-13T22:40:05.100Z,16.50
2018-02-13T22:42:32.860Z,16.60
2018-02-13T22:45:00.554Z,16.50
2018-02-13T22:47:28.999Z,16.60
2018-02-13T22:49:56.709Z,16.50
2018-02-13T22:52:25.190Z,16.60
2018-02-13T22:54:53.650Z,16.50
2018-02-13T22:57:22.105Z,16.50
2018-02-13T22:59:49.807Z,16.50
2018-02-13T23:02:18.290Z,16.50
2018-02-13T23:04:46.754Z,16.50
2018-02-13T23:07:15.253Z,16.60
2018-02-13T23:09:42.961Z,16.50
2018-02-13T23:12:10.646Z,16.50
2018-02-13T23:14:38.305Z,16.50
2018-02-13T23:17:05.945Z,16.50
2018-02-13T23:19:33.614Z,16.50
2018-02-13T23:22:01.279Z,16.50
2018-02-13T23:24:28.971Z,16.60
2018-02-13T23:26:57.409Z,16.50
2018-02-13T23:29:25.061Z,16.50
2018-02-13T23:31:52.714Z,16.50
2018-02-13T23:34:20.422Z,16.50
2018-02-13T23:36:48.856Z,16.50
2018-02-13T23:39:16.487Z,16.50
2018-02-13T23:41:44.196Z,16.50
2018-02-13T23:44:11.857Z,16.50
2018-02-13T23:46:39.525Z,16.50
2018-02-13T23:49:07.257Z,16.50
2018-02-13T23:51:34.899Z,16.50
2018-02-13T23:54:02.561Z,16.50
2018-02-13T23:56:30.225Z,16.50
2018-02-13T23:58:57.876Z,16.50
